Time;durP1;ratioP1;P1;durP2;ratioP2;P2;SDS_P1;SDS_P2;PMS_P1;PMS_P2;Temp;Humidity;BMP_temperature;BMP_pressure;BME280_temperature;BME280_humidity;BME280_pressure;Samples;Min_cycle;Max_cycle;Signal;HPM_P1;HPM_P2
2021/08/22 00:00:48;;;;;;;15.82;5.47;;;;;;;;;;6138730;23;20177;-91
2021/08/22 00:03:55;;;;;;;12.43;5.60;;;;;;;;;;6139313;23;20227;-89
2021/08/22 00:07:00;;;;;;;11.60;5.55;;;;;;;;;;6140144;23;20217;-90
2021/08/22 00:10:06;;;;;;;10.70;6.05;;;;;;;;;;6139049;23;20244;-91
2021/08/22 00:13:11;;;;;;;10.07;5.47;;;;;;;;;;6138551;23;20500;-91
2021/08/22 00:16:16;;;;;;;8.90;5.90;;;;;;;;;;6139430;23;20177;-90
2021/08/22 00:19:22;;;;;;;10.35;6.10;;;;;;;;;;6137355;23;20192;-90
2021/08/22 00:22:27;;;;;;;8.38;5.55;;;;;;;;;;6138985;23;20294;-91
2021/08/22 00:25:33;;;;;;;9.45;5.25;;;;;;;;;;6137909;23;20188;-90
2021/08/22 00:28:38;;;;;;;10.30;5.63;;;;;;;;;;6138047;23;20201;-91
2021/08/22 00:31:43;;;;;;;11.70;5.95;;;;;;;;;;6136802;23;20174;-91
2021/08/22 00:34:49;;;;;;;12.50;5.78;;;;;;;;;;6137832;23;20177;-91
2021/08/22 00:37:56;;;;;;;8.75;5.57;;;;;;;;;;6137866;23;20218;-91
2021/08/22 00:41:01;;;;;;;8.63;5.15;;;;;;;;;;6136830;23;20188;-90
2021/08/22 00:44:07;;;;;;;10.52;5.47;;;;;;;;;;6137005;23;20169;-91
2021/08/22 00:47:12;;;;;;;11.95;5.88;;;;;;;;;;6137652;23;20174;-90
2021/08/22 00:50:19;;;;;;;9.68;5.80;;;;;;;;;;6137757;23;20177;-90
2021/08/22 00:53:25;;;;;;;9.73;5.63;;;;;;;;;;6137212;23;20169;-91
2021/08/22 00:56:32;;;;;;;9.10;5.78;;;;;;;;;;6136688;23;20205;-89
2021/08/22 00:59:39;;;;;;;10.32;5.75;;;;;;;;;;6137082;23;20197;-90
2021/08/22 01:02:46;;;;;;;11.57;6.10;;;;;;;;;;6138704;23;20201;-91
2021/08/22 01:05:57;;;;;;;9.13;5.22;;;;;;;;;;6137602;23;20173;-89
2021/08/22 01:09:06;;;;;;;11.43;5.88;;;;;;;;;;6136487;23;20170;-92
2021/08/22 01:12:13;;;;;;;8.93;5.32;;;;;;;;;;6136036;23;20172;-92
2021/08/22 01:15:19;;;;;;;9.35;5.78;;;;;;;;;;6134899;23;20234;-90
2021/08/22 01:18:26;;;;;;;10.90;6.05;;;;;;;;;;6134860;23;20172;-91
2021/08/22 01:21:33;;;;;;;12.45;6.00;;;;;;;;;;6118322;23;20193;-90
2021/08/22 01:24:40;;;;;;;10.50;5.95;;;;;;;;;;6118910;23;20172;-90
2021/08/22 01:27:46;;;;;;;9.60;5.63;;;;;;;;;;6120312;23;20252;-91
2021/08/22 01:30:51;;;;;;;9.05;6.00;;;;;;;;;;6119340;23;20177;-91
2021/08/22 01:33:59;;;;;;;8.70;5.68;;;;;;;;;;6118640;23;20198;-91
2021/08/22 01:37:04;;;;;;;8.60;5.50;;;;;;;;;;6123612;23;20161;-91
2021/08/22 01:40:11;;;;;;;10.82;5.43;;;;;;;;;;6123985;23;20172;-92
2021/08/22 01:43:16;;;;;;;9.35;5.82;;;;;;;;;;6123161;23;20204;-91
2021/08/22 01:46:23;;;;;;;12.05;6.25;;;;;;;;;;6124902;23;20177;-90
2021/08/22 01:52:49;;;;;;;12.13;5.80;;;;;;;;;;6124312;23;20173;-90
2021/08/22 01:55:56;;;;;;;10.85;5.22;;;;;;;;;;6120840;23;20649;-91
2021/08/22 01:59:02;;;;;;;10.68;5.85;;;;;;;;;;6120473;23;20169;-90
2021/08/22 02:02:07;;;;;;;14.18;5.95;;;;;;;;;;6121480;23;20192;-92
2021/08/22 02:05:14;;;;;;;13.95;5.65;;;;;;;;;;6120647;23;20243;-90
2021/08/22 02:08:21;;;;;;;12.10;5.68;;;;;;;;;;6120194;23;20229;-90
2021/08/22 02:11:28;;;;;;;9.85;5.50;;;;;;;;;;6121534;23;20177;-90
2021/08/22 02:14:33;;;;;;;10.05;5.82;;;;;;;;;;6118174;23;20177;-90
2021/08/22 02:17:41;;;;;;;10.43;5.70;;;;;;;;;;6136416;23;20220;-90
2021/08/22 02:20:47;;;;;;;10.35;5.80;;;;;;;;;;6120705;23;20172;-91
2021/08/22 02:23:53;;;;;;;8.48;5.63;;;;;;;;;;6118865;23;20177;-91
2021/08/22 02:26:58;;;;;;;10.55;5.38;;;;;;;;;;6127613;23;20488;-90
2021/08/22 02:30:04;;;;;;;9.68;5.65;;;;;;;;;;6123822;23;20173;-90
2021/08/22 02:33:14;;;;;;;9.13;5.57;;;;;;;;;;6125853;23;20165;-91
2021/08/22 02:36:21;;;;;;;8.80;5.72;;;;;;;;;;6116566;23;20217;-90
2021/08/22 02:39:26;;;;;;;10.95;5.55;;;;;;;;;;6116905;23;20173;-92
2021/08/22 02:42:31;;;;;;;10.80;5.30;;;;;;;;;;6119178;23;20193;-91
2021/08/22 02:45:36;;;;;;;9.57;5.57;;;;;;;;;;6116682;23;20173;-89
2021/08/22 02:48:41;;;;;;;9.07;5.50;;;;;;;;;;6117825;23;20172;-91
2021/08/22 02:51:47;;;;;;;10.02;5.18;;;;;;;;;;6116848;23;20173;-92
2021/08/22 02:54:52;;;;;;;8.20;5.18;;;;;;;;;;6117551;23;20173;-90
2021/08/22 02:57:58;;;;;;;10.95;5.88;;;;;;;;;;6117309;23;20174;-91
2021/08/22 03:01:04;;;;;;;10.35;5.70;;;;;;;;;;6128550;23;20173;-91
2021/08/22 03:04:10;;;;;;;8.73;5.80;;;;;;;;;;6140948;23;20238;-90
2021/08/22 03:07:16;;;;;;;11.02;5.75;;;;;;;;;;6119073;23;20190;-90
2021/08/22 03:10:21;;;;;;;10.18;5.63;;;;;;;;;;6119524;23;20224;-91
2021/08/22 03:13:26;;;;;;;11.55;5.85;;;;;;;;;;6119465;23;20173;-90
2021/08/22 03:16:31;;;;;;;8.15;5.32;;;;;;;;;;6120412;23;20185;-91
2021/08/22 03:19:36;;;;;;;11.30;5.55;;;;;;;;;;6121278;23;20204;-91
2021/08/22 03:22:43;;;;;;;8.40;5.47;;;;;;;;;;6136622;23;20192;-90
2021/08/22 03:25:48;;;;;;;9.43;5.95;;;;;;;;;;6136204;23;20230;-91
2021/08/22 03:28:53;;;;;;;7.45;5.25;;;;;;;;;;6136274;23;20173;-91
2021/08/22 03:31:58;;;;;;;10.13;5.60;;;;;;;;;;6136412;23;20217;-91
2021/08/22 03:35:03;;;;;;;8.82;5.47;;;;;;;;;;6137054;23;20173;-90
2021/08/22 03:38:09;;;;;;;9.52;6.22;;;;;;;;;;6136388;23;20181;-92
2021/08/22 03:41:14;;;;;;;10.30;6.38;;;;;;;;;;6136608;23;20173;-92
2021/08/22 03:44:18;;;;;;;11.35;6.20;;;;;;;;;;6136000;23;20189;-90
2021/08/22 03:47:23;;;;;;;12.52;6.45;;;;;;;;;;6136183;23;20309;-90
2021/08/22 03:50:28;;;;;;;12.90;6.13;;;;;;;;;;6136856;23;20253;-90
2021/08/22 03:53:35;;;;;;;11.68;6.18;;;;;;;;;;6135572;23;20545;-90
2021/08/22 03:56:41;;;;;;;12.85;6.15;;;;;;;;;;6135688;23;20172;-90
2021/08/22 03:59:45;;;;;;;10.27;6.25;;;;;;;;;;6134546;23;20182;-91
2021/08/22 04:02:55;;;;;;;9.68;5.88;;;;;;;;;;6134478;23;20732;-90
2021/08/22 04:06:27;;;;;;;11.02;5.68;;;;;;;;;;6128653;23;20188;-92
2021/08/22 04:09:33;;;;;;;9.15;5.75;;;;;;;;;;6136420;23;20172;-91
2021/08/22 04:12:39;;;;;;;11.35;6.22;;;;;;;;;;6135133;23;20217;-90
2021/08/22 04:15:44;;;;;;;8.60;5.78;;;;;;;;;;6135816;23;20177;-91
2021/08/22 04:18:49;;;;;;;8.52;5.43;;;;;;;;;;6135459;23;20636;-91
2021/08/22 04:21:54;;;;;;;13.25;6.00;;;;;;;;;;6117907;23;20169;-90
2021/08/22 04:25:00;;;;;;;10.63;6.07;;;;;;;;;;6118982;23;20173;-91
2021/08/22 04:28:08;;;;;;;9.02;5.97;;;;;;;;;;6118158;23;20488;-91
2021/08/22 04:31:13;;;;;;;10.25;6.03;;;;;;;;;;6117843;23;20158;-91
2021/08/22 04:34:18;;;;;;;11.23;5.85;;;;;;;;;;6116617;23;20613;-90
2021/08/22 04:37:23;;;;;;;13.75;5.57;;;;;;;;;;6117695;23;20181;-91
2021/08/22 04:40:30;;;;;;;9.02;5.90;;;;;;;;;;6117636;23;20231;-89
2021/08/22 04:43:34;;;;;;;9.80;5.45;;;;;;;;;;6116416;23;20197;-92
2021/08/22 04:46:40;;;;;;;9.27;4.95;;;;;;;;;;6118731;23;20172;-91
2021/08/22 04:49:44;;;;;;;7.82;4.97;;;;;;;;;;6116619;23;20213;-90
2021/08/22 04:52:50;;;;;;;12.40;5.47;;;;;;;;;;6116232;23;20172;-90
2021/08/22 04:55:56;;;;;;;8.18;5.43;;;;;;;;;;6117178;23;20172;-89
2021/08/22 04:59:01;;;;;;;11.50;5.68;;;;;;;;;;6116942;23;20180;-89
2021/08/22 05:02:06;;;;;;;9.85;4.95;;;;;;;;;;6117352;23;20182;-92
2021/08/22 05:05:11;;;;;;;9.68;4.97;;;;;;;;;;6118445;23;20189;-90
2021/08/22 05:08:17;;;;;;;8.40;5.53;;;;;;;;;;6116073;23;20225;-90
2021/08/22 05:11:24;;;;;;;8.80;5.68;;;;;;;;;;6116577;23;20173;-90
2021/08/22 05:14:32;;;;;;;11.80;5.30;;;;;;;;;;6118318;23;20157;-91
2021/08/22 05:17:37;;;;;;;9.55;5.45;;;;;;;;;;6116061;23;20172;-90
2021/08/22 05:20:42;;;;;;;9.02;5.47;;;;;;;;;;6116692;23;20168;-90
2021/08/22 05:23:47;;;;;;;12.68;5.60;;;;;;;;;;6117248;23;20193;-92
2021/08/22 05:26:54;;;;;;;9.23;5.63;;;;;;;;;;6117588;23;20173;-91
2021/08/22 05:29:59;;;;;;;9.45;5.22;;;;;;;;;;6116607;23;20178;-91
2021/08/22 05:33:05;;;;;;;12.70;5.53;;;;;;;;;;6116437;23;20225;-91
2021/08/22 05:36:16;;;;;;;11.13;5.20;;;;;;;;;;6116743;23;20689;-92
2021/08/22 05:39:22;;;;;;;14.15;5.38;;;;;;;;;;6116617;23;20177;-91
2021/08/22 05:42:28;;;;;;;13.23;5.50;;;;;;;;;;6116157;23;20176;-90
2021/08/22 05:45:33;;;;;;;8.85;5.55;;;;;;;;;;6116547;23;20621;-90
2021/08/22 05:48:38;;;;;;;12.55;5.90;;;;;;;;;;6117984;23;20173;-90
2021/08/22 05:51:45;;;;;;;11.48;5.97;;;;;;;;;;6116615;23;20244;-91
2021/08/22 05:54:50;;;;;;;9.80;5.90;;;;;;;;;;6116191;23;20547;-90
2021/08/22 05:57:56;;;;;;;7.90;5.70;;;;;;;;;;6114852;23;20227;-91
2021/08/22 06:01:00;;;;;;;10.20;5.80;;;;;;;;;;6117162;23;20233;-89
2021/08/22 06:04:05;;;;;;;9.50;6.10;;;;;;;;;;6117767;23;20192;-90
2021/08/22 06:07:10;;;;;;;10.68;6.05;;;;;;;;;;6116339;23;20176;-89
2021/08/22 06:10:15;;;;;;;8.60;5.95;;;;;;;;;;6117002;23;20173;-90
2021/08/22 06:13:22;;;;;;;10.10;6.25;;;;;;;;;;6117294;23;20169;-89
2021/08/22 06:16:27;;;;;;;11.15;6.13;;;;;;;;;;6115787;23;20172;-90
2021/08/22 06:19:32;;;;;;;11.43;6.43;;;;;;;;;;6121825;23;20196;-91
2021/08/22 06:22:37;;;;;;;13.98;6.80;;;;;;;;;;6135670;23;20169;-90
2021/08/22 06:25:42;;;;;;;10.20;6.35;;;;;;;;;;6134875;23;20243;-90
2021/08/22 06:28:48;;;;;;;14.65;7.75;;;;;;;;;;6133632;23;20176;-91
2021/08/22 06:31:53;;;;;;;17.90;8.40;;;;;;;;;;6134196;23;20169;-90
2021/08/22 06:34:58;;;;;;;14.95;6.82;;;;;;;;;;6138375;23;20173;-91
2021/08/22 06:38:03;;;;;;;12.25;7.43;;;;;;;;;;6138359;23;20270;-91
2021/08/22 06:41:08;;;;;;;12.77;8.05;;;;;;;;;;6139299;23;20191;-88
2021/08/22 06:44:15;;;;;;;13.55;7.43;;;;;;;;;;6138661;23;20566;-90
2021/08/22 06:47:20;;;;;;;14.75;7.30;;;;;;;;;;6138519;23;20180;-90
2021/08/22 06:50:25;;;;;;;11.43;7.13;;;;;;;;;;6138430;23;20173;-91
2021/08/22 06:53:31;;;;;;;12.43;7.55;;;;;;;;;;6140416;23;20170;-90
2021/08/22 06:56:36;;;;;;;12.93;7.45;;;;;;;;;;6137452;23;20173;-89
2021/08/22 06:59:42;;;;;;;12.10;7.80;;;;;;;;;;6138179;23;20217;-92
2021/08/22 07:02:47;;;;;;;15.88;7.53;;;;;;;;;;6138319;23;20197;-89
2021/08/22 07:05:52;;;;;;;14.57;7.88;;;;;;;;;;6136857;23;20260;-91
2021/08/22 07:08:58;;;;;;;14.32;7.75;;;;;;;;;;6139144;23;20174;-91
2021/08/22 07:12:03;;;;;;;14.65;8.15;;;;;;;;;;6138544;23;20277;-90
2021/08/22 07:15:11;;;;;;;13.32;8.52;;;;;;;;;;6138839;23;20237;-92
2021/08/22 07:18:16;;;;;;;11.85;8.15;;;;;;;;;;6137073;23;20177;-90
2021/08/22 07:21:21;;;;;;;10.85;7.57;;;;;;;;;;6120337;23;20176;-90
2021/08/22 07:24:25;;;;;;;14.48;7.68;;;;;;;;;;6116884;23;20264;-91
2021/08/22 07:27:30;;;;;;;11.85;8.00;;;;;;;;;;6119607;23;20168;-91
2021/08/22 07:30:37;;;;;;;12.18;7.72;;;;;;;;;;6118905;23;20172;-90
2021/08/22 07:33:42;;;;;;;9.98;6.85;;;;;;;;;;6117887;23;20176;-91
2021/08/22 07:36:47;;;;;;;14.60;7.47;;;;;;;;;;6118109;23;20173;-90
2021/08/22 07:39:53;;;;;;;11.02;7.40;;;;;;;;;;6119438;23;20636;-90
2021/08/22 07:42:58;;;;;;;11.85;7.32;;;;;;;;;;6121012;23;20182;-89
2021/08/22 07:46:05;;;;;;;11.73;7.78;;;;;;;;;;6120815;23;20177;-91
2021/08/22 07:49:10;;;;;;;11.75;6.20;;;;;;;;;;6118435;23;20165;-89
2021/08/22 07:52:15;;;;;;;12.07;6.72;;;;;;;;;;6118464;23;20172;-88
2021/08/22 07:55:22;;;;;;;12.73;6.72;;;;;;;;;;6121007;23;20177;-90
2021/08/22 07:58:27;;;;;;;12.05;6.97;;;;;;;;;;6117158;23;20507;-90
2021/08/22 08:01:33;;;;;;;10.38;7.10;;;;;;;;;;6119181;23;20180;-89
2021/08/22 08:04:42;;;;;;;12.85;7.15;;;;;;;;;;6118088;23;20312;-92
2021/08/22 08:07:48;;;;;;;11.25;7.78;;;;;;;;;;6119274;23;20169;-88
2021/08/22 08:10:53;;;;;;;13.35;7.75;;;;;;;;;;6118959;23;20173;-90
2021/08/22 08:13:58;;;;;;;11.88;7.47;;;;;;;;;;6118702;23;20168;-88
2021/08/22 08:17:06;;;;;;;14.00;8.07;;;;;;;;;;6118922;23;20173;-90
2021/08/22 08:20:12;;;;;;;14.48;8.05;;;;;;;;;;6129652;23;20248;-89
2021/08/22 08:23:52;;;;;;;13.40;7.20;;;;;;;;;;6134538;23;20169;-88
2021/08/22 08:27:05;;;;;;;13.88;8.02;;;;;;;;;;6135629;23;20169;-89
2021/08/22 08:30:11;;;;;;;12.98;7.93;;;;;;;;;;6138176;23;20245;-90
2021/08/22 08:33:17;;;;;;;14.95;8.48;;;;;;;;;;6137432;23;20173;-91
2021/08/22 08:36:24;;;;;;;14.27;8.95;;;;;;;;;;6136822;23;20692;-89
2021/08/22 08:39:29;;;;;;;15.05;8.65;;;;;;;;;;6138421;23;20257;-88
2021/08/22 08:42:34;;;;;;;17.27;8.30;;;;;;;;;;6135967;23;20459;-88
2021/08/22 08:45:44;;;;;;;18.02;9.00;;;;;;;;;;6134806;23;20253;-89
2021/08/22 08:48:56;;;;;;;15.02;9.10;;;;;;;;;;6138205;23;20173;-90
2021/08/22 08:52:03;;;;;;;13.63;8.70;;;;;;;;;;6141385;23;20201;-88
2021/08/22 08:55:10;;;;;;;16.63;10.55;;;;;;;;;;6138592;23;20169;-93
2021/08/22 08:58:18;;;;;;;15.85;10.10;;;;;;;;;;6138350;23;20168;-88
2021/08/22 09:01:23;;;;;;;18.42;10.30;;;;;;;;;;6137258;23;20170;-91
2021/08/22 09:04:34;;;;;;;17.08;10.88;;;;;;;;;;6136012;23;20237;-89
2021/08/22 09:07:58;;;;;;;19.27;10.65;;;;;;;;;;6136978;23;20165;-90
2021/08/22 09:11:24;;;;;;;18.33;10.82;;;;;;;;;;6136589;23;20173;-89
2021/08/22 09:14:57;;;;;;;21.23;10.80;;;;;;;;;;6117630;23;20185;-90
2021/08/22 09:18:32;;;;;;;18.70;10.60;;;;;;;;;;6135241;23;20184;-90
2021/08/22 09:21:55;;;;;;;18.83;11.10;;;;;;;;;;6138263;23;20169;-89
2021/08/22 09:25:20;;;;;;;19.17;12.18;;;;;;;;;;6134062;23;20750;-88
2021/08/22 09:28:43;;;;;;;18.48;11.98;;;;;;;;;;6137176;23;20172;-89
2021/08/22 09:32:03;;;;;;;17.65;12.50;;;;;;;;;;6136093;23;20201;-90
2021/08/22 09:35:34;;;;;;;19.55;12.48;;;;;;;;;;6134717;23;20165;-88
2021/08/22 09:39:09;;;;;;;22.83;12.52;;;;;;;;;;6139527;23;20172;-89
2021/08/22 09:42:33;;;;;;;17.05;10.93;;;;;;;;;;6136376;23;20278;-92
2021/08/22 09:46:08;;;;;;;20.73;11.88;;;;;;;;;;6134382;23;20192;-89
2021/08/22 09:49:29;;;;;;;16.95;10.85;;;;;;;;;;6139329;23;20176;-90
2021/08/22 09:52:52;;;;;;;20.08;11.73;;;;;;;;;;6139165;23;20176;-89
2021/08/22 09:56:15;;;;;;;16.35;11.25;;;;;;;;;;6139586;23;20239;-89
2021/08/22 09:59:44;;;;;;;17.95;10.95;;;;;;;;;;6135239;23;20216;-90
2021/08/22 10:03:04;;;;;;;16.67;10.27;;;;;;;;;;6135665;23;20177;-89
2021/08/22 10:06:30;;;;;;;18.02;10.45;;;;;;;;;;6137125;23;20169;-89
2021/08/22 10:09:38;;;;;;;16.08;9.88;;;;;;;;;;6137642;23;20190;-89
2021/08/22 10:12:43;;;;;;;16.27;9.63;;;;;;;;;;6138752;23;20177;-89
2021/08/22 10:15:50;;;;;;;19.45;9.80;;;;;;;;;;6139099;23;20174;-90
2021/08/22 10:19:04;;;;;;;17.58;10.02;;;;;;;;;;6136573;23;20268;-90
2021/08/22 10:22:13;;;;;;;15.75;10.60;;;;;;;;;;6138352;23;20479;-89
2021/08/22 10:25:38;;;;;;;19.02;10.43;;;;;;;;;;6122051;23;20522;-90
2021/08/22 10:29:02;;;;;;;16.02;10.32;;;;;;;;;;6120629;23;20189;-90
2021/08/22 10:32:15;;;;;;;14.73;9.85;;;;;;;;;;6120484;23;20225;-90
2021/08/22 10:35:20;;;;;;;14.13;9.70;;;;;;;;;;6119708;23;20170;-90
2021/08/22 10:38:28;;;;;;;16.17;9.93;;;;;;;;;;6121467;23;20177;-90
2021/08/22 10:41:36;;;;;;;19.38;10.80;;;;;;;;;;6119025;23;20161;-90
2021/08/22 10:44:41;;;;;;;14.75;9.32;;;;;;;;;;6123393;23;20237;-88
2021/08/22 10:47:46;;;;;;;14.60;9.75;;;;;;;;;;6123064;23;20177;-90
2021/08/22 10:51:10;;;;;;;17.50;9.55;;;;;;;;;;6122652;23;20177;-89
2021/08/22 10:54:21;;;;;;;13.55;9.27;;;;;;;;;;6121006;23;20318;-89
2021/08/22 10:57:44;;;;;;;16.33;10.10;;;;;;;;;;6121158;23;20613;-91
2021/08/22 11:00:49;;;;;;;14.20;9.60;;;;;;;;;;6122119;23;20198;-89
2021/08/22 11:04:01;;;;;;;13.88;9.43;;;;;;;;;;6120143;23;20198;-91
2021/08/22 11:07:07;;;;;;;22.30;10.65;;;;;;;;;;6120631;23;20157;-90
2021/08/22 11:10:20;;;;;;;14.98;10.90;;;;;;;;;;6126633;23;20186;-89
2021/08/22 11:13:25;;;;;;;18.02;10.15;;;;;;;;;;6123577;23;20201;-90
2021/08/22 11:16:45;;;;;;;17.67;10.35;;;;;;;;;;6124464;23;20165;-91
2021/08/22 11:19:52;;;;;;;15.07;9.88;;;;;;;;;;6130356;23;20221;-88
2021/08/22 11:23:04;;;;;;;16.08;9.73;;;;;;;;;;6137332;23;20169;-92
2021/08/22 11:26:12;;;;;;;16.13;9.98;;;;;;;;;;6138460;23;20256;-90
2021/08/22 11:29:18;;;;;;;16.63;10.73;;;;;;;;;;6138239;23;20189;-90
2021/08/22 11:32:23;;;;;;;14.95;9.60;;;;;;;;;;6138959;23;20173;-90
2021/08/22 11:35:29;;;;;;;16.85;10.82;;;;;;;;;;6138470;23;20172;-90
2021/08/22 11:38:34;;;;;;;14.32;10.00;;;;;;;;;;6138153;23;20173;-91
2021/08/22 11:41:44;;;;;;;17.35;9.82;;;;;;;;;;6140627;23;20172;-90
2021/08/22 11:44:48;;;;;;;16.15;10.02;;;;;;;;;;6142304;23;20196;-89
2021/08/22 11:47:54;;;;;;;19.35;10.27;;;;;;;;;;6168907;23;20227;-89
2021/08/22 11:51:02;;;;;;;13.35;9.50;;;;;;;;;;6171121;23;20156;-89
2021/08/22 11:54:07;;;;;;;15.63;9.30;;;;;;;;;;6171444;23;20237;-91
2021/08/22 11:57:21;;;;;;;17.52;9.23;;;;;;;;;;6167798;23;20369;-92
2021/08/22 12:00:26;;;;;;;12.13;8.90;;;;;;;;;;6166264;23;20181;-91
2021/08/22 12:03:32;;;;;;;11.55;8.30;;;;;;;;;;6170478;23;20290;-90
2021/08/22 12:06:37;;;;;;;12.95;8.85;;;;;;;;;;6171679;23;20156;-92
2021/08/22 12:09:50;;;;;;;11.13;7.75;;;;;;;;;;6173460;23;20176;-89
2021/08/22 12:12:59;;;;;;;11.48;8.25;;;;;;;;;;6173908;23;20153;-89
2021/08/22 12:16:22;;;;;;;12.52;7.80;;;;;;;;;;6173133;23;20284;-90
2021/08/22 12:19:28;;;;;;;13.60;8.55;;;;;;;;;;6172894;23;20253;-89
2021/08/22 12:22:33;;;;;;;13.63;8.23;;;;;;;;;;6174213;23;20188;-90
2021/08/22 12:25:47;;;;;;;12.18;9.10;;;;;;;;;;6172960;23;20540;-90
2021/08/22 12:28:54;;;;;;;10.75;6.78;;;;;;;;;;6172993;23;20188;-92
2021/08/22 12:32:08;;;;;;;6.63;5.15;;;;;;;;;;6173868;23;20205;-92
2021/08/22 12:35:14;;;;;;;12.30;6.50;;;;;;;;;;6171457;23;20484;-92
2021/08/22 12:38:20;;;;;;;10.07;5.82;;;;;;;;;;6171796;23;20221;-91
2021/08/22 12:41:28;;;;;;;9.50;6.05;;;;;;;;;;6171848;23;20175;-91
2021/08/22 12:44:36;;;;;;;10.55;6.75;;;;;;;;;;6174104;23;20193;-89
2021/08/22 12:47:41;;;;;;;9.45;6.00;;;;;;;;;;6169898;23;20191;-91
2021/08/22 12:50:46;;;;;;;12.80;6.97;;;;;;;;;;6172085;23;20188;-92
2021/08/22 12:53:52;;;;;;;10.32;6.80;;;;;;;;;;6169668;23;20172;-92
2021/08/22 12:56:57;;;;;;;10.65;6.47;;;;;;;;;;6170047;23;20233;-89
2021/08/22 13:00:06;;;;;;;9.20;5.28;;;;;;;;;;6170885;23;20200;-91
2021/08/22 13:03:11;;;;;;;9.55;4.95;;;;;;;;;;6171549;23;20231;-88
2021/08/22 13:06:17;;;;;;;7.95;4.97;;;;;;;;;;6172939;23;20249;-89
2021/08/22 13:09:23;;;;;;;7.88;4.95;;;;;;;;;;6171907;23;20216;-90
2021/08/22 13:12:31;;;;;;;7.97;4.72;;;;;;;;;;6176271;23;20160;-90
2021/08/22 13:15:38;;;;;;;8.05;5.40;;;;;;;;;;6173289;23;20192;-90
2021/08/22 13:18:44;;;;;;;7.88;4.70;;;;;;;;;;6174928;23;20220;-92
2021/08/22 13:21:54;;;;;;;7.43;4.18;;;;;;;;;;6173078;23;20239;-90
2021/08/22 13:24:59;;;;;;;6.40;3.22;;;;;;;;;;6174256;23;20321;-91
2021/08/22 13:28:05;;;;;;;7.50;3.75;;;;;;;;;;6168346;23;20164;-91
2021/08/22 13:31:12;;;;;;;5.15;3.33;;;;;;;;;;6172475;23;20285;-89
2021/08/22 13:34:18;;;;;;;6.50;4.00;;;;;;;;;;6172314;23;20168;-90
2021/08/22 13:37:24;;;;;;;7.05;3.67;;;;;;;;;;6171420;23;20168;-92
2021/08/22 13:40:31;;;;;;;6.63;4.20;;;;;;;;;;6174758;23;20192;-91
2021/08/22 13:43:44;;;;;;;6.05;3.90;;;;;;;;;;6176421;23;20173;-90
2021/08/22 13:46:52;;;;;;;6.00;4.32;;;;;;;;;;6182669;23;20216;-88
2021/08/22 13:49:59;;;;;;;6.85;4.40;;;;;;;;;;6184289;23;20211;-91
2021/08/22 13:53:06;;;;;;;5.82;3.88;;;;;;;;;;6186235;23;20160;-90
2021/08/22 13:56:12;;;;;;;6.53;4.28;;;;;;;;;;6186063;23;20172;-92
2021/08/22 13:59:17;;;;;;;6.03;4.00;;;;;;;;;;6185975;23;20248;-92
2021/08/22 14:02:24;;;;;;;8.00;4.43;;;;;;;;;;6183962;23;20233;-90
2021/08/22 14:05:29;;;;;;;6.85;4.00;;;;;;;;;;6184297;23;20195;-92
2021/08/22 14:08:35;;;;;;;6.30;3.65;;;;;;;;;;6184065;23;20172;-91
2021/08/22 14:11:40;;;;;;;6.22;3.80;;;;;;;;;;6183640;23;20682;-90
2021/08/22 14:14:45;;;;;;;7.68;4.70;;;;;;;;;;6184871;23;20171;-90
2021/08/22 14:17:55;;;;;;;5.75;3.80;;;;;;;;;;6182929;23;20160;-91
2021/08/22 14:21:01;;;;;;;6.43;3.40;;;;;;;;;;6181550;23;20203;-91
2021/08/22 14:24:06;;;;;;;5.68;3.50;;;;;;;;;;6182684;23;20171;-91
2021/08/22 14:27:12;;;;;;;5.47;3.80;;;;;;;;;;6183019;23;20280;-89
2021/08/22 14:30:17;;;;;;;8.65;3.83;;;;;;;;;;6180124;23;20215;-90
2021/08/22 14:33:25;;;;;;;7.45;3.70;;;;;;;;;;6184006;23;20164;-91
2021/08/22 14:36:34;;;;;;;5.65;3.38;;;;;;;;;;6180654;23;20244;-92
2021/08/22 14:39:40;;;;;;;5.18;3.40;;;;;;;;;;6182183;23;20172;-94
2021/08/22 14:42:45;;;;;;;5.97;3.00;;;;;;;;;;6180633;23;20270;-91
2021/08/22 14:45:51;;;;;;;13.50;4.55;;;;;;;;;;6182893;23;20192;-91
2021/08/22 14:48:59;;;;;;;4.70;3.40;;;;;;;;;;6185455;23;20234;-90
2021/08/22 14:55:24;;;;;;;5.82;3.17;;;;;;;;;;6183011;23;20256;-90
2021/08/22 14:58:29;;;;;;;10.10;3.60;;;;;;;;;;6184233;23;20228;-91
2021/08/22 15:01:41;;;;;;;6.18;3.33;;;;;;;;;;6185644;23;20168;-90
2021/08/22 15:04:48;;;;;;;5.65;2.92;;;;;;;;;;6186920;23;20167;-91
2021/08/22 15:07:53;;;;;;;8.55;4.43;;;;;;;;;;6186625;23;20211;-91
2021/08/22 15:10:58;;;;;;;10.18;3.53;;;;;;;;;;6185599;23;20172;-93
2021/08/22 15:14:04;;;;;;;5.53;4.00;;;;;;;;;;6183443;23;20172;-91
2021/08/22 15:17:09;;;;;;;7.13;3.70;;;;;;;;;;6186148;23;20188;-91
2021/08/22 15:20:17;;;;;;;6.78;3.83;;;;;;;;;;6184229;23;20172;-91
2021/08/22 15:23:22;;;;;;;10.40;5.20;;;;;;;;;;6184221;23;20172;-91
2021/08/22 15:26:28;;;;;;;9.77;5.68;;;;;;;;;;6183386;23;20211;-91
2021/08/22 15:29:33;;;;;;;6.05;4.00;;;;;;;;;;6183878;23;20503;-88
2021/08/22 15:32:39;;;;;;;6.43;3.60;;;;;;;;;;6184002;23;20220;-91
2021/08/22 15:35:46;;;;;;;4.47;3.28;;;;;;;;;;6184138;23;20172;-91
2021/08/22 15:38:51;;;;;;;4.40;3.10;;;;;;;;;;6185212;23;20168;-91
2021/08/22 15:41:59;;;;;;;6.38;3.55;;;;;;;;;;6181172;23;20512;-90
2021/08/22 15:45:04;;;;;;;7.60;3.80;;;;;;;;;;6181053;23;20231;-90
2021/08/22 15:48:09;;;;;;;6.30;3.55;;;;;;;;;;6180510;23;20198;-89
2021/08/22 15:51:16;;;;;;;5.72;3.35;;;;;;;;;;6182889;23;20179;-92
2021/08/22 15:54:21;;;;;;;5.93;3.65;;;;;;;;;;6185597;23;20183;-91
2021/08/22 15:57:26;;;;;;;8.63;3.65;;;;;;;;;;6185653;23;20168;-92
2021/08/22 16:00:33;;;;;;;7.78;3.85;;;;;;;;;;6182212;23;20238;-90
2021/08/22 16:03:40;;;;;;;3.83;2.75;;;;;;;;;;6182616;23;20175;-90
2021/08/22 16:06:50;;;;;;;3.40;2.20;;;;;;;;;;6182514;23;20269;-90
2021/08/22 16:09:55;;;;;;;2.55;1.67;;;;;;;;;;6183685;23;20200;-89
2021/08/22 16:13:01;;;;;;;4.28;1.70;;;;;;;;;;6183012;23;20172;-90
2021/08/22 16:16:06;;;;;;;4.93;1.90;;;;;;;;;;6184822;23;20167;-88
2021/08/22 16:19:14;;;;;;;4.68;1.73;;;;;;;;;;6178911;23;20168;-91
2021/08/22 16:22:22;;;;;;;7.78;2.00;;;;;;;;;;6179252;23;20167;-89
2021/08/22 16:25:28;;;;;;;5.18;1.85;;;;;;;;;;6181809;23;20243;-90
2021/08/22 16:28:33;;;;;;;3.17;1.77;;;;;;;;;;6180350;23;20171;-91
2021/08/22 16:31:38;;;;;;;2.42;1.70;;;;;;;;;;6179058;23;20169;-89
2021/08/22 16:34:43;;;;;;;6.25;1.73;;;;;;;;;;6179644;23;20184;-90
2021/08/22 16:37:50;;;;;;;4.28;1.60;;;;;;;;;;6178491;23;20172;-89
2021/08/22 16:40:55;;;;;;;4.47;1.58;;;;;;;;;;6180493;23;20175;-89
2021/08/22 16:44:00;;;;;;;4.95;1.90;;;;;;;;;;6181914;23;20176;-90
2021/08/22 16:47:05;;;;;;;2.40;1.52;;;;;;;;;;6179104;23;20214;-89
2021/08/22 16:50:11;;;;;;;4.88;2.10;;;;;;;;;;6180616;23;20176;-90
2021/08/22 16:53:18;;;;;;;4.90;2.10;;;;;;;;;;6180638;23;20168;-88
2021/08/22 16:56:22;;;;;;;10.00;3.35;;;;;;;;;;6180527;23;20176;-88
2021/08/22 16:59:28;;;;;;;5.20;2.05;;;;;;;;;;6180636;23;20167;-90
2021/08/22 17:02:34;;;;;;;5.20;1.70;;;;;;;;;;6180648;23;20171;-90
2021/08/22 17:05:38;;;;;;;3.30;1.60;;;;;;;;;;6180410;23;20178;-88
2021/08/22 17:08:45;;;;;;;3.72;2.00;;;;;;;;;;6179387;23;20623;-91
2021/08/22 17:11:50;;;;;;;4.40;2.10;;;;;;;;;;6180536;23;20241;-89
2021/08/22 17:14:55;;;;;;;4.65;1.95;;;;;;;;;;6179589;23;20192;-91
2021/08/22 17:18:02;;;;;;;5.57;1.80;;;;;;;;;;6179505;23;20171;-91
2021/08/22 17:21:07;;;;;;;4.30;1.90;;;;;;;;;;6179594;23;20505;-89
2021/08/22 17:24:14;;;;;;;7.85;2.13;;;;;;;;;;6180540;23;20168;-89
2021/08/22 17:27:20;;;;;;;9.93;2.40;;;;;;;;;;6179503;23;20191;-89
2021/08/22 17:30:25;;;;;;;8.20;4.78;;;;;;;;;;6179721;23;20228;-88
2021/08/22 17:33:29;;;;;;;11.20;4.68;;;;;;;;;;6178976;23;20184;-89
2021/08/22 17:36:34;;;;;;;7.60;2.67;;;;;;;;;;6180087;23;20168;-91
2021/08/22 17:39:41;;;;;;;6.28;2.53;;;;;;;;;;6179541;23;20179;-89
2021/08/22 17:42:46;;;;;;;8.30;2.05;;;;;;;;;;6179640;23;20187;-90
2021/08/22 17:45:51;;;;;;;6.15;2.25;;;;;;;;;;6179799;23;20235;-90
2021/08/22 17:48:57;;;;;;;7.80;2.58;;;;;;;;;;6178977;23;20175;-88
2021/08/22 17:52:04;;;;;;;5.53;2.67;;;;;;;;;;6178098;23;20184;-89
2021/08/22 17:55:15;;;;;;;4.95;2.65;;;;;;;;;;6179995;23;20176;-88
2021/08/22 17:58:21;;;;;;;13.98;4.00;;;;;;;;;;6178393;23;20234;-88
2021/08/22 18:01:55;;;;;;;5.88;2.35;;;;;;;;;;6178128;23;20168;-90
2021/08/22 18:05:00;;;;;;;6.05;2.05;;;;;;;;;;6181182;23;20195;-90
2021/08/22 18:08:07;;;;;;;6.20;2.30;;;;;;;;;;6180944;23;20643;-89
2021/08/22 18:11:13;;;;;;;5.13;1.80;;;;;;;;;;6177572;23;20720;-89
2021/08/22 18:14:18;;;;;;;4.32;2.30;;;;;;;;;;6180539;23;20225;-89
2021/08/22 18:17:23;;;;;;;5.45;2.58;;;;;;;;;;6180555;23;20231;-89
2021/08/22 18:20:29;;;;;;;10.32;2.25;;;;;;;;;;6182561;23;21050;-89
2021/08/22 18:23:35;;;;;;;7.78;3.03;;;;;;;;;;6181396;23;20188;-90
2021/08/22 18:26:42;;;;;;;8.15;3.60;;;;;;;;;;6181710;23;20242;-90
2021/08/22 18:29:47;;;;;;;5.50;2.78;;;;;;;;;;6181726;23;20171;-90
2021/08/22 18:32:53;;;;;;;8.88;4.40;;;;;;;;;;6180734;23;20164;-89
2021/08/22 18:36:01;;;;;;;8.30;3.25;;;;;;;;;;6181566;23;20175;-88
2021/08/22 18:39:06;;;;;;;7.28;2.30;;;;;;;;;;6181605;23;20168;-89